Time;durP1;ratioP1;P1;durP2;ratioP2;P2;SDS_P1;SDS_P2;PMS_P1;PMS_P2;Temp;Humidity;BMP_temperature;BMP_pressure;BME280_temperature;BME280_humidity;BME280_pressure;Samples;Min_cycle;Max_cycle;Signal;HPM_P1;HPM_P2
2021/09/04 00:02:20;;;;;;;16.40;10.70;;;;;;;6.47;97.01;93326.78;1828944;75;21530;-91
2021/09/04 00:04:46;;;;;;;12.90;8.48;;;;;;;6.45;96.93;93333.70;1872947;74;21155;-90
2021/09/04 00:07:13;;;;;;;14.55;8.23;;;;;;;6.42;97.27;93327.10;1868490;74;21065;-91
2021/09/04 00:09:40;;;;;;;15.05;9.03;;;;;;;6.40;97.66;93322.66;1839457;74;21029;-88
2021/09/04 00:12:08;;;;;;;11.90;7.80;;;;;;;6.36;97.19;93329.15;1859189;74;21084;-89
2021/09/04 00:14:37;;;;;;;10.80;7.12;;;;;;;6.32;97.04;93329.14;1850686;75;20993;-90
2021/09/04 00:17:04;;;;;;;10.82;6.65;;;;;;;6.29;97.81;93330.64;1845275;75;21591;-90
2021/09/04 00:19:31;;;;;;;11.48;7.40;;;;;;;6.30;98.15;93330.07;1819210;76;21131;-89
2021/09/04 00:21:57;;;;;;;9.38;7.12;;;;;;;6.31;98.22;93331.61;1843558;75;21016;-90
2021/09/04 00:24:23;;;;;;;11.05;7.92;;;;;;;6.28;98.28;93335.85;1856687;75;21019;-89
2021/09/04 00:26:50;;;;;;;9.68;7.33;;;;;;;6.27;98.79;93336.98;1873446;74;21134;-88
2021/09/04 00:29:17;;;;;;;11.55;7.12;;;;;;;6.27;99.25;93333.50;1869307;74;21116;-88
2021/09/04 00:31:43;;;;;;;10.72;6.60;;;;;;;6.29;99.37;93335.27;1856539;76;21086;-89
2021/09/04 00:34:10;;;;;;;13.10;6.60;;;;;;;6.28;99.54;93335.05;1778518;79;21098;-88
2021/09/04 00:36:36;;;;;;;9.68;6.97;;;;;;;6.29;99.72;93337.39;1813910;76;21084;-90
2021/09/04 00:39:03;;;;;;;9.63;7.62;;;;;;;6.30;100.00;93328.72;1771251;79;21034;-88
2021/09/04 00:41:34;;;;;;;12.75;7.28;;;;;;;6.35;100.00;93331.08;1807733;76;21026;-88
2021/09/04 00:43:58;;;;;;;8.28;6.35;;;;;;;6.40;100.00;93329.98;1855275;76;21152;-87
2021/09/04 00:46:25;;;;;;;7.50;5.70;;;;;;;6.41;99.89;93335.01;1849671;76;21674;-89
2021/09/04 00:48:52;;;;;;;8.18;6.10;;;;;;;6.37;99.70;93323.97;1846829;76;21045;-89
2021/09/04 00:51:18;;;;;;;9.55;6.10;;;;;;;6.29;99.63;93323.89;1848779;76;21095;-88
2021/09/04 00:53:45;;;;;;;7.75;5.08;;;;;;;6.27;99.98;93325.41;1849677;76;21586;-88
2021/09/04 00:56:13;;;;;;;7.55;5.40;;;;;;;6.30;100.00;93330.84;1852361;76;21130;-89
2021/09/04 00:58:41;;;;;;;8.58;5.17;;;;;;;6.31;100.00;93330.27;1849193;76;21092;-88
2021/09/04 01:01:07;;;;;;;7.42;5.62;;;;;;;6.32;100.00;93321.04;1798418;77;20994;-90
2021/09/04 01:03:35;;;;;;;6.00;4.85;;;;;;;6.36;100.00;93321.05;1851310;76;20919;-89
2021/09/04 01:06:02;;;;;;;5.25;4.75;;;;;;;6.36;100.00;93327.80;1851982;76;22344;-89
2021/09/04 01:08:30;;;;;;;6.28;4.92;;;;;;;6.35;100.00;93322.97;1845430;76;21101;-88
2021/09/04 01:10:57;;;;;;;6.67;5.12;;;;;;;6.33;100.00;93322.01;1847567;76;21009;-91
2021/09/04 01:13:24;;;;;;;7.90;5.47;;;;;;;6.34;100.00;93314.67;1850034;76;20944;-89
2021/09/04 01:15:54;;;;;;;9.80;4.53;;;;;;;6.30;100.00;93317.34;1849331;76;21039;-89
2021/09/04 01:18:22;;;;;;;4.22;3.83;;;;;;;6.27;100.00;93324.05;1850181;76;21057;-88
2021/09/04 01:20:49;;;;;;;6.10;4.95;;;;;;;6.26;100.00;93317.11;1851555;76;21075;-89
2021/09/04 01:23:17;;;;;;;6.33;4.10;;;;;;;6.24;100.00;93324.23;1848242;75;21017;-90
2021/09/04 01:25:43;;;;;;;4.45;3.87;;;;;;;6.25;100.00;93313.63;1858923;76;21516;-89
2021/09/04 01:28:10;;;;;;;6.33;4.83;;;;;;;6.28;100.00;93314.80;1846392;76;21056;-90
2021/09/04 01:30:36;;;;;;;5.70;4.17;;;;;;;6.31;100.00;93315.41;1854881;75;21048;-89
2021/09/04 01:33:03;;;;;;;10.50;4.80;;;;;;;6.34;100.00;93311.98;1849111;76;21080;-90
2021/09/04 01:35:29;;;;;;;9.28;5.15;;;;;;;6.30;100.00;93315.98;1827779;76;21710;-89
2021/09/04 01:37:56;;;;;;;6.87;4.10;;;;;;;6.27;100.00;93318.08;1775956;76;21058;-89
2021/09/04 01:40:22;;;;;;;6.42;4.65;;;;;;;6.30;100.00;93319.27;1851083;76;21052;-90
2021/09/04 01:42:49;;;;;;;6.22;4.10;;;;;;;6.33;100.00;93324.70;1848380;76;21034;-89
2021/09/04 01:45:15;;;;;;;7.05;4.87;;;;;;;6.38;100.00;93315.48;1834762;76;21072;-90
2021/09/04 01:47:42;;;;;;;7.75;4.67;;;;;;;6.35;100.00;93317.57;1849565;76;20952;-90
2021/09/04 01:50:10;;;;;;;6.00;4.30;;;;;;;6.35;100.00;93309.47;1846258;75;21635;-91
2021/09/04 01:52:37;;;;;;;6.92;4.40;;;;;;;6.37;100.00;93307.77;1762235;79;21007;-89
2021/09/04 01:55:06;;;;;;;5.90;4.45;;;;;;;6.38;100.00;93310.66;1843626;75;21057;-90
2021/09/04 01:57:32;;;;;;;6.85;4.22;;;;;;;6.31;100.00;93311.36;1825970;76;21528;-90
2021/09/04 01:59:59;;;;;;;4.72;3.87;;;;;;;6.23;100.00;93313.21;1808467;78;21137;-90
2021/09/04 02:02:25;;;;;;;6.00;4.65;;;;;;;6.19;100.00;93305.65;1802316;77;21027;-90
2021/09/04 02:04:51;;;;;;;8.70;4.72;;;;;;;6.14;100.00;93305.99;1779998;79;21035;-89
2021/09/04 02:07:19;;;;;;;4.45;4.03;;;;;;;6.15;100.00;93304.84;1808667;77;21057;-90
2021/09/04 02:09:46;;;;;;;8.45;5.45;;;;;;;6.20;100.00;93300.45;1823374;76;21096;-90
2021/09/04 02:12:13;;;;;;;7.60;5.92;;;;;;;6.24;100.00;93309.94;1818178;77;21026;-88
2021/09/04 02:14:40;;;;;;;6.87;4.62;;;;;;;6.29;100.00;93300.94;1805338;76;21500;-89
2021/09/04 02:17:07;;;;;;;5.85;4.58;;;;;;;6.33;100.00;93292.30;1865962;74;21025;-90
2021/09/04 02:19:35;;;;;;;6.20;4.50;;;;;;;6.29;100.00;93289.37;1818156;76;21088;-91
2021/09/04 02:22:04;;;;;;;5.20;4.30;;;;;;;6.22;100.00;93289.30;1862677;75;21505;-90
2021/09/04 02:24:31;;;;;;;7.30;4.78;;;;;;;6.17;100.00;93291.76;1864056;74;21034;-90
2021/09/04 02:27:00;;;;;;;6.03;4.30;;;;;;;6.13;100.00;93296.34;1852545;76;21053;-90
2021/09/04 02:29:27;;;;;;;7.90;4.87;;;;;;;6.11;100.00;93291.88;1839143;75;21270;-89
2021/09/04 02:31:54;;;;;;;6.35;5.40;;;;;;;6.08;100.00;93293.37;1833622;76;20997;-90
2021/09/04 02:34:21;;;;;;;6.37;5.37;;;;;;;6.10;100.00;93297.66;1844789;76;21117;-90
2021/09/04 02:36:49;;;;;;;5.33;4.50;;;;;;;6.19;100.00;93300.25;1861217;76;21100;-90
2021/09/04 02:39:16;;;;;;;6.00;4.50;;;;;;;6.26;100.00;93294.16;1859933;74;21471;-89
2021/09/04 02:41:43;;;;;;;6.30;4.35;;;;;;;6.31;100.00;93299.20;1857364;75;21096;-90
2021/09/04 02:44:10;;;;;;;6.25;4.75;;;;;;;6.38;100.00;93299.28;1801899;77;20983;-90
2021/09/04 02:46:36;;;;;;;7.00;4.53;;;;;;;6.35;100.00;93305.42;1778468;79;21112;-89
2021/09/04 02:49:04;;;;;;;5.62;4.85;;;;;;;6.35;100.00;93292.49;1818362;76;21622;-87
2021/09/04 02:51:31;;;;;;;7.42;4.72;;;;;;;6.34;100.00;93297.12;1819225;75;21092;-89
2021/09/04 02:53:57;;;;;;;7.37;4.47;;;;;;;6.33;100.00;93284.78;1854735;76;21580;-89
2021/09/04 02:56:24;;;;;;;7.67;4.95;;;;;;;6.32;100.00;93289.41;1838698;76;21556;-90
2021/09/04 02:58:52;;;;;;;6.20;4.95;;;;;;;6.33;100.00;93291.53;1850734;76;21956;-89
2021/09/04 03:01:19;;;;;;;6.80;5.10;;;;;;;6.33;100.00;93285.55;1842354;76;21050;-91
2021/09/04 03:03:48;;;;;;;6.53;5.42;;;;;;;6.35;100.00;93288.44;1811774;77;21070;-90
2021/09/04 03:06:15;;;;;;;8.13;5.55;;;;;;;6.39;100.00;93285.20;1835689;75;21061;-91
2021/09/04 03:08:41;;;;;;;5.75;5.12;;;;;;;6.46;100.00;93290.67;1839627;75;21160;-90
2021/09/04 03:11:10;;;;;;;6.45;4.50;;;;;;;6.50;100.00;93292.83;1878128;74;21567;-89
2021/09/04 03:13:36;;;;;;;7.50;4.08;;;;;;;6.51;100.00;93289.78;1867629;74;21014;-91
2021/09/04 03:16:03;;;;;;;6.08;4.47;;;;;;;6.46;100.00;93290.09;1843213;76;20979;-89
2021/09/04 03:18:29;;;;;;;5.30;4.72;;;;;;;6.37;100.00;93296.39;1805241;77;21545;-88
2021/09/04 03:20:58;;;;;;;5.15;4.58;;;;;;;6.31;100.00;93289.76;1772807;77;21018;-87
2021/09/04 03:23:24;;;;;;;5.50;4.45;;;;;;;6.28;100.00;93285.89;1803621;77;21124;-87
2021/09/04 03:25:51;;;;;;;5.10;4.17;;;;;;;6.30;100.00;93288.21;1789407;77;21219;-89
2021/09/04 03:28:18;;;;;;;5.50;4.90;;;;;;;6.31;100.00;93283.78;1829934;75;21046;-91
2021/09/04 03:30:45;;;;;;;6.15;4.70;;;;;;;6.33;100.00;93280.73;1834483;74;21405;-89
2021/09/04 03:33:12;;;;;;;5.00;4.42;;;;;;;6.36;100.00;93276.48;1781316;78;21053;-89
2021/09/04 03:35:40;;;;;;;25.90;22.45;;;;;;;6.31;100.00;93281.08;1831225;76;21167;-89
2021/09/04 03:38:06;;;;;;;9.48;6.75;;;;;;;6.23;100.00;93284.09;1844812;75;21622;-89
2021/09/04 03:40:33;;;;;;;6.80;5.45;;;;;;;6.20;100.00;93290.22;1861858;74;21614;-90
2021/09/04 03:43:01;;;;;;;6.42;5.17;;;;;;;6.20;100.00;93274.02;1844377;74;21056;-87
2021/09/04 03:45:31;;;;;;;5.12;4.28;;;;;;;6.20;100.00;93280.19;1842977;75;21112;-88
2021/09/04 03:47:58;;;;;;;5.55;4.05;;;;;;;6.25;100.00;93289.33;1845489;75;21132;-89
2021/09/04 03:50:29;;;;;;;5.67;4.62;;;;;;;6.27;100.00;93291.07;1879631;74;21001;-90
2021/09/04 03:52:57;;;;;;;6.55;4.65;;;;;;;6.22;100.00;93301.44;1854179;74;21033;-91
2021/09/04 03:55:24;;;;;;;4.53;3.90;;;;;;;6.18;100.00;93300.05;1867143;75;20987;-91
2021/09/04 03:57:51;;;;;;;6.92;5.25;;;;;;;6.20;100.00;93296.97;1866235;76;20990;-90
2021/09/04 04:00:19;;;;;;;13.90;9.98;;;;;;;6.15;100.00;93291.91;1866763;74;21132;-91
2021/09/04 04:02:46;;;;;;;7.83;6.55;;;;;;;6.15;100.00;93296.73;1867991;74;21091;-90
2021/09/04 04:05:13;;;;;;;6.37;5.78;;;;;;;6.19;100.00;93301.59;1838455;77;21627;-89
2021/09/04 04:07:41;;;;;;;5.65;4.97;;;;;;;6.18;100.00;93300.63;1785811;76;21561;-90
2021/09/04 04:10:08;;;;;;;7.05;4.65;;;;;;;6.18;100.00;93300.05;1800406;77;21042;-90
2021/09/04 04:12:37;;;;;;;5.47;4.50;;;;;;;6.18;100.00;93312.78;1795698;77;21528;-90
2021/09/04 04:15:05;;;;;;;13.55;6.33;;;;;;;6.20;100.00;93311.25;1786695;75;21900;-90
2021/09/04 04:17:31;;;;;;;6.28;5.00;;;;;;;6.23;100.00;93313.79;1839701;75;21729;-91
2021/09/04 04:19:58;;;;;;;5.83;4.42;;;;;;;6.29;100.00;93308.27;1790088;77;21696;-88
2021/09/04 04:22:26;;;;;;;7.78;4.67;;;;;;;6.32;100.00;93305.61;1785812;77;21091;-91
2021/09/04 04:24:52;;;;;;;11.22;6.95;;;;;;;6.33;100.00;93307.73;1796501;77;22380;-88
2021/09/04 04:27:19;;;;;;;8.13;6.15;;;;;;;6.35;100.00;93305.42;1817498;75;21061;-89
2021/09/04 04:29:46;;;;;;;12.55;8.65;;;;;;;6.38;100.00;93305.27;1836125;75;21092;-89
2021/09/04 04:32:13;;;;;;;9.05;6.62;;;;;;;6.39;100.00;93305.45;1807683;77;21690;-90
2021/09/04 04:34:40;;;;;;;6.42;5.53;;;;;;;6.38;100.00;93301.21;1794246;78;21078;-90
2021/09/04 04:37:09;;;;;;;10.18;5.15;;;;;;;6.40;100.00;93302.98;1830507;75;21004;-91
2021/09/04 04:39:36;;;;;;;5.15;4.53;;;;;;;6.40;100.00;93302.41;1838823;74;21030;-90
2021/09/04 04:42:04;;;;;;;6.75;4.80;;;;;;;6.49;100.00;93305.56;1877689;74;21053;-91
2021/09/04 04:44:33;;;;;;;7.65;4.72;;;;;;;6.86;100.00;93308.02;1855812;75;21062;-91
2021/09/04 04:47:00;;;;;;;10.20;6.30;;;;;;;7.47;100.00;93306.51;1854412;75;21040;-92
2021/09/04 04:49:27;;;;;;;6.00;5.40;;;;;;;8.13;100.00;93296.96;1860304;74;21109;-90
2021/09/04 04:51:53;;;;;;;5.15;4.50;;;;;;;8.68;100.00;93298.06;1870723;74;20978;-91
2021/09/04 04:54:20;;;;;;;6.83;5.67;;;;;;;8.97;100.00;93296.92;1864328;74;21028;-91
2021/09/04 04:56:48;;;;;;;5.15;4.65;;;;;;;9.08;98.53;93295.58;1855453;74;21158;-88
2021/09/04 04:59:14;;;;;;;7.55;5.37;;;;;;;9.12;97.21;93296.93;1817160;77;21588;-89
2021/09/04 05:01:41;;;;;;;8.58;6.60;;;;;;;9.13;96.36;93295.76;1837188;76;21124;-88
2021/09/04 05:04:09;;;;;;;6.83;5.28;;;;;;;9.20;96.87;93288.97;1834054;75;21568;-90
2021/09/04 05:06:36;;;;;;;7.67;6.50;;;;;;;9.24;96.06;93295.17;1796428;75;21280;-91
2021/09/04 05:09:03;;;;;;;7.05;5.25;;;;;;;9.30;96.00;93282.00;1858534;76;21052;-90
2021/09/04 05:11:29;;;;;;;6.22;5.20;;;;;;;9.39;95.19;93283.72;1826068;75;21718;-91
2021/09/04 05:13:57;;;;;;;5.40;4.53;;;;;;;9.51;94.64;93285.25;1793758;76;21061;-88
2021/09/04 05:16:24;;;;;;;5.72;5.12;;;;;;;9.66;93.99;93287.53;1803977;76;21647;-90
2021/09/04 05:18:52;;;;;;;9.73;5.45;;;;;;;9.94;94.54;93284.55;1847477;75;21026;-90
2021/09/04 05:21:19;;;;;;;5.30;4.80;;;;;;;10.42;93.22;93275.83;1874001;74;21133;-91
2021/09/04 05:23:46;;;;;;;6.53;4.72;;;;;;;10.83;90.94;93278.67;1875204;75;21068;-90
2021/09/04 05:26:17;;;;;;;4.83;4.35;;;;;;;11.10;88.55;93275.36;1798024;75;21069;-90
2021/09/04 05:28:55;;;;;;;5.62;5.00;;;;;;;11.43;87.39;93276.03;1777487;75;20986;-90
2021/09/04 05:31:33;;;;;;;5.90;5.30;;;;;;;11.90;85.21;93283.15;1758900;77;21025;-89
2021/09/04 05:34:00;;;;;;;6.37;5.70;;;;;;;12.05;82.43;93281.03;1809528;76;21333;-89
2021/09/04 05:36:27;;;;;;;6.78;5.35;;;;;;;12.01;82.07;93280.91;1837541;75;20994;-90
2021/09/04 05:38:54;;;;;;;7.67;6.33;;;;;;;11.98;81.40;93285.80;1869110;74;21603;-91
2021/09/04 05:41:20;;;;;;;5.83;5.25;;;;;;;11.99;81.16;93285.97;1871489;74;20958;-89
2021/09/04 05:43:46;;;;;;;6.53;5.72;;;;;;;12.00;80.85;93287.52;1869321;74;20993;-90
2021/09/04 05:46:13;;;;;;;6.10;5.50;;;;;;;11.90;81.11;93283.15;1849758;75;21077;-88
2021/09/04 05:48:40;;;;;;;5.53;5.00;;;;;;;11.81;81.52;93277.39;1831606;75;21792;-89
2021/09/04 05:51:06;;;;;;;5.95;5.30;;;;;;;11.71;82.02;93277.50;1874339;74;21052;-88
2021/09/04 05:53:34;;;;;;;6.50;5.25;;;;;;;11.59;82.19;93271.98;1835182;75;21507;-89
2021/09/04 05:56:00;;;;;;;6.80;5.65;;;;;;;11.46;82.34;93275.02;1839527;76;21045;-88
2021/09/04 05:58:26;;;;;;;7.70;6.85;;;;;;;11.36;83.25;93266.56;1822723;75;21044;-88
2021/09/04 06:00:53;;;;;;;8.88;6.97;;;;;;;11.30;83.27;93270.12;1862203;74;21062;-88
2021/09/04 06:03:20;;;;;;;11.20;7.78;;;;;;;11.19;84.21;93267.48;1843492;75;21062;-89
2021/09/04 06:05:46;;;;;;;9.30;6.70;;;;;;;11.20;84.75;93270.39;1866672;74;21116;-90
2021/09/04 06:08:13;;;;;;;7.35;5.72;;;;;;;11.34;85.03;93265.41;1839914;74;21095;-87
2021/09/04 06:10:40;;;;;;;7.15;6.45;;;;;;;11.51;85.41;93267.77;1855209;75;21151;-91
2021/09/04 06:13:07;;;;;;;8.00;6.25;;;;;;;11.70;84.47;93261.75;1859106;74;21031;-88
2021/09/04 06:15:37;;;;;;;9.13;6.87;;;;;;;11.78;83.87;93261.09;1832828;76;21104;-89
2021/09/04 06:18:08;;;;;;;9.60;6.53;;;;;;;11.80;83.79;93259.48;1774284;79;21054;-90
2021/09/04 06:20:37;;;;;;;8.35;6.53;;;;;;;11.78;83.83;93261.86;1774444;78;21037;-89
2021/09/04 06:23:09;;;;;;;7.60;6.30;;;;;;;11.76;83.90;93262.07;1764769;79;21041;-91
2021/09/04 06:25:37;;;;;;;6.45;5.85;;;;;;;11.73;84.31;93260.92;1826978;74;20961;-88
2021/09/04 06:28:05;;;;;;;6.90;5.75;;;;;;;11.74;84.54;93261.72;1864240;74;21122;-89
2021/09/04 06:30:31;;;;;;;7.40;5.12;;;;;;;11.80;85.08;93257.35;1834314;76;21077;-87
2021/09/04 06:32:58;;;;;;;7.30;6.03;;;;;;;11.85;84.66;93252.27;1833697;76;21054;-91
2021/09/04 06:35:25;;;;;;;6.12;5.37;;;;;;;11.93;85.11;93250.23;1861007;74;20982;-89
2021/09/04 06:37:51;;;;;;;8.48;6.80;;;;;;;12.10;85.23;93248.47;1846471;75;20995;-88
2021/09/04 06:40:19;;;;;;;11.75;7.00;;;;;;;12.23;84.87;93252.80;1846210;75;21572;-88
2021/09/04 06:42:46;;;;;;;10.58;8.00;;;;;;;12.34;85.01;93252.07;1867567;74;21056;-88
2021/09/04 06:45:13;;;;;;;7.78;6.65;;;;;;;12.47;85.10;93253.05;1836100;75;21038;-91
2021/09/04 06:47:41;;;;;;;6.90;6.20;;;;;;;12.72;85.52;93253.30;1769755;77;21097;-90
2021/09/04 06:50:08;;;;;;;8.95;6.37;;;;;;;13.09;83.59;93252.34;1783360;77;21061;-91
2021/09/04 06:52:36;;;;;;;9.98;7.65;;;;;;;13.38;82.74;93247.78;1791924;77;21078;-87
2021/09/04 06:55:04;;;;;;;7.65;6.47;;;;;;;13.59;82.67;93248.77;1800751;77;21030;-88
2021/09/04 06:57:32;;;;;;;7.70;6.60;;;;;;;13.81;81.95;93247.19;1773602;79;21038;-89
2021/09/04 06:59:58;;;;;;;8.13;7.00;;;;;;;13.99;81.05;93254.26;1850752;76;21103;-90
2021/09/04 07:02:25;;;;;;;10.75;6.75;;;;;;;14.07;80.24;93246.88;1854515;75;21349;-89
2021/09/04 07:04:51;;;;;;;9.90;7.30;;;;;;;14.17;80.36;93245.71;1855875;76;21085;-91
2021/09/04 07:07:18;;;;;;;9.75;6.28;;;;;;;14.24;79.59;93254.53;1826570;75;21046;-88
2021/09/04 07:09:44;;;;;;;7.58;5.85;;;;;;;14.28;78.68;93247.03;1777938;76;21105;-87
2021/09/04 07:12:11;;;;;;;7.17;5.83;;;;;;;14.36;78.36;93242.78;1848542;76;21520;-87
2021/09/04 07:14:38;;;;;;;9.78;5.65;;;;;;;14.48;77.35;93244.28;1847748;74;21108;-89
2021/09/04 07:17:04;;;;;;;7.00;5.78;;;;;;;14.59;77.00;93241.32;1839734;74;21098;-89
2021/09/04 07:19:31;;;;;;;13.00;7.35;;;;;;;14.72;77.68;93244.95;1841686;76;21038;-90
2021/09/04 07:21:57;;;;;;;8.18;5.75;;;;;;;14.88;76.84;93243.42;1844761;76;21041;-90
2021/09/04 07:24:24;;;;;;;8.60;5.92;;;;;;;15.00;74.96;93245.48;1793962;77;21515;-89
2021/09/04 07:26:50;;;;;;;8.45;6.05;;;;;;;15.12;75.12;93244.82;1774698;78;21065;-89
2021/09/04 07:29:17;;;;;;;7.80;5.75;;;;;;;15.23;74.80;93250.81;1774819;79;21094;-90
2021/09/04 07:31:44;;;;;;;6.55;5.92;;;;;;;15.29;74.18;93246.94;1776708;79;21069;-89
2021/09/04 07:34:11;;;;;;;6.03;5.42;;;;;;;15.34;74.29;93249.77;1840501;75;21116;-90
2021/09/04 07:36:37;;;;;;;6.47;5.75;;;;;;;15.44;74.91;93248.13;1848333;76;21037;-89
2021/09/04 07:39:04;;;;;;;8.75;5.95;;;;;;;15.61;73.70;93255.74;1845758;75;21049;-91
2021/09/04 07:41:30;;;;;;;5.78;5.28;;;;;;;15.74;73.47;93256.59;1855247;76;21275;-90
2021/09/04 07:44:00;;;;;;;6.75;5.08;;;;;;;15.84;71.57;93252.64;1834814;76;21050;-90
2021/09/04 07:46:26;;;;;;;7.53;5.65;;;;;;;15.88;71.08;93253.31;1817494;76;21197;-88
2021/09/04 07:48:52;;;;;;;4.92;4.42;;;;;;;15.90;70.07;93242.06;1844610;76;20998;-88
2021/09/04 07:51:19;;;;;;;5.85;5.22;;;;;;;15.97;69.99;93256.95;1851075;76;21073;-89
2021/09/04 07:53:45;;;;;;;7.72;5.85;;;;;;;16.07;69.75;93255.74;1855409;76;21061;-88
2021/09/04 07:56:12;;;;;;;7.83;5.67;;;;;;;16.18;69.58;93250.73;1863479;75;21064;-89
2021/09/04 07:58:39;;;;;;;6.62;4.80;;;;;;;16.23;68.32;93247.44;1858528;76;21081;-89
2021/09/04 08:01:06;;;;;;;5.72;5.10;;;;;;;16.20;68.36;93246.94;1854846;76;21093;-89
2021/09/04 08:03:33;;;;;;;5.25;4.75;;;;;;;16.17;68.13;93247.80;1850223;76;20951;-89
2021/09/04 08:05:59;;;;;;;5.58;4.70;;;;;;;16.17;69.23;93240.36;1850029;76;21564;-91
2021/09/04 08:08:25;;;;;;;8.00;5.80;;;;;;;16.26;69.09;93249.32;1845279;75;21143;-87
2021/09/04 08:10:55;;;;;;;7.30;5.75;;;;;;;16.35;67.92;93241.21;1845191;76;21124;-89
2021/09/04 08:13:24;;;;;;;5.67;5.10;;;;;;;16.47;68.28;93240.48;1851477;76;21066;-90
2021/09/04 08:15:51;;;;;;;5.75;5.25;;;;;;;16.61;68.49;93233.02;1853551;76;21118;-91
2021/09/04 08:18:20;;;;;;;5.72;5.10;;;;;;;16.72;66.51;93236.98;1866926;76;21053;-91
2021/09/04 08:20:46;;;;;;;7.70;5.92;;;;;;;16.83;65.04;93233.18;1859891;74;21651;-90
2021/09/04 08:23:12;;;;;;;6.22;5.53;;;;;;;16.84;62.88;93230.59;1842074;76;21054;-92
2021/09/04 08:25:39;;;;;;;7.33;5.90;;;;;;;16.78;63.47;93239.99;1823042;76;21093;-88
2021/09/04 08:28:07;;;;;;;10.10;8.45;;;;;;;16.67;61.96;93230.67;1874788;74;20994;-89
2021/09/04 08:30:35;;;;;;;7.10;6.35;;;;;;;16.56;61.39;93232.20;1782063;79;21411;-90
2021/09/04 08:33:02;;;;;;;6.33;5.58;;;;;;;16.46;62.50;93231.30;1842128;75;21502;-87
2021/09/04 08:35:28;;;;;;;7.45;5.60;;;;;;;16.38;62.60;93233.48;1853119;76;21076;-87
2021/09/04 08:37:55;;;;;;;6.10;5.50;;;;;;;16.32;62.57;93230.34;1846942;76;20986;-87
2021/09/04 08:40:22;;;;;;;9.85;5.80;;;;;;;16.26;63.46;93229.52;1847597;76;21722;-88
2021/09/04 08:42:51;;;;;;;6.10;5.50;;;;;;;16.20;63.54;93227.73;1848164;76;21081;-88
2021/09/04 08:45:18;;;;;;;10.23;7.05;;;;;;;16.13;63.96;93223.21;1811355;77;21245;-89
2021/09/04 08:47:45;;;;;;;10.32;5.92;;;;;;;16.08;61.99;93225.73;1818613;76;21042;-88
2021/09/04 08:50:11;;;;;;;7.92;6.12;;;;;;;16.01;62.27;93220.60;1842653;76;21124;-89
2021/09/04 08:52:38;;;;;;;9.18;7.12;;;;;;;16.00;62.47;93227.91;1823882;75;21272;-87
2021/09/04 08:55:05;;;;;;;11.35;7.28;;;;;;;15.98;63.10;93226.19;1768396;78;21564;-89
2021/09/04 08:57:31;;;;;;;10.13;7.55;;;;;;;15.99;62.96;93230.48;1774955;78;21057;-90
2021/09/04 09:00:00;;;;;;;7.22;6.10;;;;;;;16.02;63.41;93231.77;1775820;78;21033;-87
2021/09/04 09:02:27;;;;;;;6.90;6.20;;;;;;;16.07;64.18;93226.34;1781416;78;21081;-91
2021/09/04 09:05:07;;;;;;;8.28;5.83;;;;;;;16.11;63.27;93225.64;1783964;78;21493;-91
2021/09/04 09:07:44;;;;;;;8.10;6.22;;;;;;;16.15;63.07;93227.67;1751408;77;21125;-90
2021/09/04 09:10:19;;;;;;;6.90;6.20;;;;;;;16.17;61.92;93225.86;1802660;77;21798;-89
2021/09/04 09:12:45;;;;;;;6.25;5.35;;;;;;;16.17;63.05;93225.28;1836197;76;21234;-88
2021/09/04 09:15:11;;;;;;;8.35;6.05;;;;;;;16.18;63.67;93225.44;1826071;76;21504;-90
2021/09/04 09:17:38;;;;;;;5.87;5.25;;;;;;;16.21;62.62;93232.80;1754010;79;21144;-89
2021/09/04 09:20:06;;;;;;;6.37;5.50;;;;;;;16.22;62.44;93234.33;1841199;75;21086;-89
2021/09/04 09:22:43;;;;;;;6.53;5.92;;;;;;;16.23;62.42;93234.49;1849579;74;20963;-86
2021/09/04 09:25:17;;;;;;;8.58;5.33;;;;;;;16.24;62.22;93240.74;1865263;74;21008;-88
2021/09/04 09:28:13;;;;;;;8.33;6.20;;;;;;;16.26;62.83;93235.00;1866340;74;21113;-87
2021/09/04 09:30:49;;;;;;;6.00;5.40;;;;;;;16.29;62.25;93233.37;1826900;75;21079;-90
2021/09/04 09:33:21;;;;;;;5.62;5.03;;;;;;;16.35;61.70;93231.61;1853103;75;21996;-88
2021/09/04 09:35:52;;;;;;;6.33;5.45;;;;;;;16.45;62.00;93238.00;1874488;74;21009;-89
2021/09/04 09:38:22;;;;;;;6.22;5.33;;;;;;;16.51;62.31;93230.75;1870672;74;21033;-89
2021/09/04 09:40:52;;;;;;;6.25;5.65;;;;;;;16.55;61.79;93237.50;1860857;74;21266;-88
2021/09/04 09:43:24;;;;;;;9.23;6.03;;;;;;;16.56;62.38;93237.69;1836890;74;21327;-86
2021/09/04 09:45:53;;;;;;;7.72;5.70;;;;;;;16.54;63.33;93238.11;1831221;76;21446;-90
2021/09/04 09:48:23;;;;;;;8.98;5.62;;;;;;;16.55;63.95;93237.50;1842057;76;20970;-86
2021/09/04 09:50:51;;;;;;;6.65;5.87;;;;;;;16.55;62.80;93233.39;1861469;75;20978;-86
2021/09/04 09:53:18;;;;;;;6.58;5.70;;;;;;;16.57;61.02;93235.88;1821374;76;20973;-89
2021/09/04 09:55:47;;;;;;;8.05;6.33;;;;;;;16.56;59.96;93228.85;1799501;77;20973;-91
2021/09/04 09:58:14;;;;;;;5.85;5.22;;;;;;;16.58;59.17;93227.80;1809084;76;21726;-89
2021/09/04 10:00:41;;;;;;;9.75;5.70;;;;;;;16.57;59.51;93220.77;1830597;75;20954;-86
2021/09/04 10:03:09;;;;;;;7.30;6.28;;;;;;;16.59;60.11;93223.86;1799266;77;21572;-89
2021/09/04 10:05:36;;;;;;;10.00;7.97;;;;;;;16.59;61.10;93221.12;1760029;78;21555;-89
2021/09/04 10:08:04;;;;;;;9.20;6.87;;;;;;;16.59;60.33;93222.49;1819549;74;21016;-88
2021/09/04 10:10:37;;;;;;;6.85;6.15;;;;;;;16.59;60.42;93219.75;1865595;74;21021;-87
2021/09/04 10:13:06;;;;;;;10.03;6.83;;;;;;;16.57;60.47;93222.75;1835615;76;20942;-90
2021/09/04 10:15:35;;;;;;;7.83;5.67;;;;;;;16.54;61.23;93218.90;1836232;74;21046;-89
2021/09/04 10:18:09;;;;;;;6.10;5.50;;;;;;;16.52;61.40;93224.08;1855869;74;21068;-90
2021/09/04 10:20:37;;;;;;;6.87;5.65;;;;;;;16.50;62.03;93219.00;1795274;77;21090;-89
2021/09/04 10:23:24;;;;;;;10.03;7.40;;;;;;;16.51;62.70;93219.77;1804327;76;21721;-89
2021/09/04 10:25:51;;;;;;;9.85;8.18;;;;;;;16.52;63.34;93217.21;1851689;74;21072;-89
2021/09/04 10:28:17;;;;;;;8.13;6.37;;;;;;;16.55;63.51;93219.66;1806608;75;21013;-89
2021/09/04 10:30:45;;;;;;;6.50;5.58;;;;;;;16.53;63.18;93224.84;1801014;76;21670;-88
2021/09/04 10:33:16;;;;;;;7.45;6.20;;;;;;;16.51;63.84;93219.77;1764899;76;20958;-88
2021/09/04 10:35:52;;;;;;;8.50;6.35;;;;;;;16.50;63.87;93223.13;1830385;75;21102;-90
2021/09/04 10:38:23;;;;;;;7.17;5.15;;;;;;;16.47;63.61;93227.34;1840794;75;20988;-89
2021/09/04 10:40:50;;;;;;;7.62;6.10;;;;;;;16.47;63.58;93230.09;1874217;74;21413;-90
2021/09/04 10:43:19;;;;;;;7.35;6.65;;;;;;;16.43;63.71;93228.81;1845061;76;21532;-88
2021/09/04 10:45:48;;;;;;;6.50;5.83;;;;;;;16.43;63.38;93221.95;1857570;74;20990;-89
2021/09/04 10:48:20;;;;;;;7.42;6.17;;;;;;;16.45;64.34;93225.05;1849719;75;21413;-87
2021/09/04 10:51:09;;;;;;;9.95;7.05;;;;;;;16.48;64.36;93211.06;1876286;74;21449;-89
2021/09/04 10:53:50;;;;;;;8.63;6.20;;;;;;;16.54;64.06;93212.04;1791936;77;21089;-86
2021/09/04 10:56:24;;;;;;;9.63;6.75;;;;;;;16.62;63.28;93207.87;1847435;74;21211;-87
2021/09/04 10:58:52;;;;;;;16.30;10.40;;;;;;;16.69;61.02;93211.01;1860510;74;21020;-86
2021/09/04 11:01:41;;;;;;;12.90;7.97;;;;;;;16.70;60.87;93214.70;1868635;74;21132;-88
2021/09/04 11:04:08;;;;;;;7.05;6.33;;;;;;;16.69;61.07;93218.64;1868233;74;21496;-87
2021/09/04 11:06:36;;;;;;;6.05;5.45;;;;;;;16.64;61.17;93220.56;1869508;74;21022;-89
2021/09/04 11:09:02;;;;;;;7.45;5.92;;;;;;;16.60;61.41;93217.16;1864819;74;21010;-88
2021/09/04 11:11:41;;;;;;;9.03;6.12;;;;;;;16.57;62.21;93217.27;1858368;74;21038;-86
2021/09/04 11:14:21;;;;;;;;;;;;;;;16.53;62.77;93224.23;1780615;77;21760;-90
2021/09/04 11:19:29;;;;;;;6.67;5.85;;;;;;;16.44;63.56;93226.87;1846684;75;21137;-90
2021/09/04 11:22:06;;;;;;;7.67;5.87;;;;;;;16.40;64.16;93231.09;1836027;76;21320;-87
2021/09/04 11:24:40;;;;;;;13.95;7.42;;;;;;;16.40;65.20;93230.32;1764373;78;21097;-90
2021/09/04 11:27:13;;;;;;;10.77;7.60;;;;;;;16.41;66.36;93227.13;1774009;78;21113;-87
2021/09/04 11:29:51;;;;;;;10.38;6.95;;;;;;;16.46;66.53;93218.34;1779019;78;21421;-87
2021/09/04 11:32:21;;;;;;;9.33;7.40;;;;;;;16.55;66.26;93212.80;1805853;77;33405;-88
2021/09/04 11:34:57;;;;;;;6.95;6.22;;;;;;;16.60;66.72;93210.30;1767478;75;21049;-87
2021/09/04 11:37:37;;;;;;;7.25;6.33;;;;;;;16.61;66.88;93204.20;1869423;74;21104;-87
2021/09/04 11:42:44;;;;;;;11.97;6.72;;;;;;;16.68;67.82;93202.61;1840421;75;20997;-88
2021/09/04 11:45:15;;;;;;;7.80;6.53;;;;;;;16.72;67.43;93201.90;1763256;78;21207;-88